createdAt,value
2019-05-15T00:02:35.809Z,1.20
2019-05-15T00:05:39.654Z,1.10
2019-05-15T00:08:43.356Z,1.30
2019-05-15T00:11:48.132Z,1.47
2019-05-15T00:14:51.906Z,1.17
2019-05-15T00:17:57.786Z,1.30
2019-05-15T00:21:01.025Z,1.50
2019-05-15T00:24:04.792Z,1.17
2019-05-15T00:27:08.462Z,1.30
2019-05-15T00:30:12.432Z,1.23
2019-05-15T00:33:16.207Z,1.10
2019-05-15T00:36:19.886Z,1.00
2019-05-15T00:39:23.650Z,1.40
2019-05-15T00:42:28.462Z,1.10
2019-05-15T00:45:32.229Z,1.43
2019-05-15T00:48:35.921Z,1.20
2019-05-15T00:51:39.662Z,1.50
2019-05-15T00:54:43.362Z,1.30
2019-05-15T00:57:48.523Z,1.30
2019-05-15T01:00:52.437Z,1.43
2019-05-15T01:03:58.423Z,1.40
2019-05-15T01:07:01.877Z,1.17
2019-05-15T01:10:06.142Z,1.30
2019-05-15T01:13:09.837Z,1.40
2019-05-15T01:16:13.509Z,1.30
2019-05-15T01:19:18.535Z,1.20
2019-05-15T01:22:22.366Z,1.40
2019-05-15T01:25:27.928Z,1.43
2019-05-15T01:28:31.448Z,1.60
2019-05-15T01:31:35.117Z,1.43
2019-05-15T01:34:38.891Z,1.40
2019-05-15T01:37:42.567Z,1.20
2019-05-15T01:40:48.526Z,1.60
2019-05-15T01:43:51.928Z,1.40
2019-05-15T01:46:55.611Z,1.40
2019-05-15T01:49:59.300Z,1.50
2019-05-15T01:53:02.975Z,1.20
2019-05-15T01:56:08.390Z,1.40
2019-05-15T01:59:12.063Z,1.60
2019-05-15T02:02:18.567Z,1.50
2019-05-15T02:05:21.708Z,1.50
2019-05-15T02:08:25.392Z,1.60
2019-05-15T02:11:29.083Z,1.80
2019-05-15T02:14:32.769Z,1.50
2019-05-15T02:17:38.908Z,1.60
2019-05-15T02:20:41.849Z,1.67
2019-05-15T02:23:45.525Z,1.60
2019-05-15T02:26:49.236Z,1.67
2019-05-15T02:29:52.915Z,1.60
2019-05-15T02:32:58.994Z,1.60
2019-05-15T02:36:01.993Z,1.60
2019-05-15T02:39:08.946Z,1.47
2019-05-15T02:42:12.659Z,1.47
2019-05-15T02:45:19.286Z,1.50
2019-05-15T02:48:21.757Z,1.60
2019-05-15T02:51:25.423Z,1.40
2019-05-15T02:54:30.139Z,1.67
2019-05-15T02:57:34.021Z,1.70
2019-05-15T03:00:47.792Z,1.40
2019-05-15T03:03:44.024Z,1.83
2019-05-15T03:06:49.630Z,1.53
2019-05-15T03:09:53.188Z,1.47
2019-05-15T03:12:59.974Z,1.93
2019-05-15T03:16:02.291Z,1.60
2019-05-15T03:19:06.046Z,2.00
2019-05-15T03:22:10.145Z,1.63
2019-05-15T03:25:14.051Z,1.57
2019-05-15T03:28:19.059Z,1.67
2019-05-15T03:31:43.627Z,1.97
2019-05-15T03:34:37.515Z,1.67
2019-05-15T03:37:34.762Z,1.53
2019-05-15T03:40:39.660Z,1.90
2019-05-15T03:43:43.705Z,1.60
2019-05-15T03:46:49.146Z,1.60
2019-05-15T03:49:52.826Z,1.93
2019-05-15T03:52:58.871Z,1.70
2019-05-15T03:56:02.497Z,1.80
2019-05-15T03:59:09.245Z,2.00
2019-05-15T04:02:11.575Z,1.93
2019-05-15T04:05:15.400Z,2.00
2019-05-15T04:08:19.805Z,2.00
2019-05-15T04:11:23.572Z,1.77
2019-05-15T04:14:29.572Z,1.67
2019-05-15T04:17:32.858Z,2.07
2019-05-15T04:20:39.938Z,1.80
2019-05-15T04:23:42.829Z,2.03
2019-05-15T04:26:48.727Z,2.00
2019-05-15T04:29:52.606Z,1.90
2019-05-15T04:32:59.454Z,1.90
2019-05-15T04:36:02.444Z,2.00
2019-05-15T04:39:09.793Z,1.90
2019-05-15T04:42:12.882Z,1.90
2019-05-15T04:45:19.457Z,2.10
2019-05-15T04:48:22.428Z,2.37
2019-05-15T04:51:30.130Z,2.27
2019-05-15T04:54:31.607Z,2.53
2019-05-15T04:57:39.557Z,2.43
2019-05-15T05:00:50.160Z,1.90
2019-05-15T05:03:54.324Z,2.20
2019-05-15T05:06:58.734Z,2.20
2019-05-15T05:10:02.585Z,1.93
2019-05-15T05:13:08.791Z,2.40
2019-05-15T05:16:11.687Z,2.30
2019-05-15T05:19:15.461Z,2.40
2019-05-15T05:22:19.259Z,2.13
2019-05-15T05:25:23.324Z,2.47
2019-05-15T05:28:28.931Z,2.10
2019-05-15T05:31:32.481Z,2.10
2019-05-15T05:34:36.194Z,2.30
2019-05-15T05:37:40.526Z,2.20
2019-05-15T05:40:44.642Z,2.20
2019-05-15T05:43:48.816Z,1.90
2019-05-15T05:46:52.722Z,2.10
2019-05-15T05:49:58.179Z,2.60
2019-05-15T05:53:01.857Z,2.40
2019-05-15T05:56:05.617Z,2.73
2019-05-15T05:59:28.642Z,2.20
2019-05-15T06:02:43.832Z,2.37
2019-05-15T06:05:38.982Z,2.13
2019-05-15T06:08:43.057Z,1.90
2019-05-15T06:11:48.667Z,2.37
2019-05-15T06:14:52.412Z,2.40
2019-05-15T06:17:58.444Z,2.43
2019-05-15T06:21:01.552Z,2.43
2019-05-15T06:24:06.283Z,2.00
2019-05-15T06:27:10.735Z,1.90
2019-05-15T06:30:26.022Z,1.37
2019-05-15T06:33:21.161Z,1.90
2019-05-15T06:36:24.851Z,1.67
2019-05-15T06:39:28.558Z,1.50
2019-05-15T06:42:32.256Z,1.53
2019-05-15T06:45:37.887Z,1.40
2019-05-15T06:48:41.378Z,1.60
2019-05-15T06:51:45.087Z,1.60
2019-05-15T06:54:48.770Z,1.60
2019-05-15T06:57:52.520Z,1.60
2019-05-15T07:00:58.991Z,1.43
2019-05-15T07:04:01.737Z,1.40
2019-05-15T07:07:08.295Z,1.30
2019-05-15T07:10:11.092Z,1.50
2019-05-15T07:13:14.772Z,1.70
2019-05-15T07:16:18.473Z,1.90
2019-05-15T07:19:22.188Z,2.10
2019-05-15T07:22:25.881Z,1.40
2019-05-15T07:25:29.575Z,1.70
2019-05-15T07:28:33.292Z,1.60
2019-05-15T07:31:38.361Z,1.53
2019-05-15T07:34:42.270Z,1.30
2019-05-15T07:37:47.895Z,1.30
2019-05-15T07:40:57.317Z,1.23
2019-05-15T07:43:58.580Z,1.30
2019-05-15T07:47:02.488Z,1.70
2019-05-15T07:50:08.804Z,1.60
2019-05-15T07:53:12.918Z,1.67
2019-05-15T07:56:18.166Z,1.67
2019-05-15T07:59:21.938Z,1.40
2019-05-15T08:02:25.642Z,1.30
2019-05-15T08:05:29.461Z,1.37
2019-05-15T08:08:33.195Z,1.50
2019-05-15T08:11:39.153Z,1.40
2019-05-15T08:14:42.308Z,1.37
2019-05-15T08:18:00.318Z,1.70
2019-05-15T08:20:51.833Z,1.40
2019-05-15T08:23:55.552Z,1.57
2019-05-15T08:26:59.539Z,1.40
2019-05-15T08:30:04.186Z,1.30
2019-05-15T08:33:08.414Z,1.70
2019-05-15T08:36:12.163Z,1.47
2019-05-15T08:39:15.889Z,1.50
2019-05-15T08:42:19.651Z,1.40
2019-05-15T08:45:23.629Z,1.70
2019-05-15T08:48:27.822Z,1.90
2019-05-15T08:51:31.710Z,1.37
2019-05-15T08:54:38.155Z,1.43
2019-05-15T08:57:40.828Z,1.40
2019-05-15T09:00:44.552Z,1.23
2019-05-15T09:03:48.864Z,1.40
2019-05-15T09:06:52.838Z,1.50
2019-05-15T09:09:58.047Z,1.43
2019-05-15T09:13:01.961Z,1.60
2019-05-15T09:16:08.139Z,1.30
2019-05-15T09:19:11.614Z,1.67
2019-05-15T09:22:15.381Z,1.43
2019-05-15T09:25:19.581Z,1.10
2019-05-15T09:28:23.308Z,1.20
2019-05-15T09:31:28.428Z,1.50
2019-05-15T09:34:46.733Z,1.53
2019-05-15T09:37:38.748Z,1.50
2019-05-15T09:40:46.506Z,1.40
2019-05-15T09:43:48.633Z,1.67
2019-05-15T09:46:52.463Z,1.40
2019-05-15T09:49:56.159Z,1.43
2019-05-15T09:52:59.876Z,1.20
2019-05-15T09:56:03.669Z,1.50
2019-05-15T09:59:08.849Z,1.23
2019-05-15T10:02:12.776Z,1.10
2019-05-15T10:05:18.764Z,1.20
2019-05-15T10:08:22.579Z,1.30
2019-05-15T10:11:28.721Z,1.10
2019-05-15T10:14:31.784Z,1.50
2019-05-15T10:17:35.932Z,1.20
2019-05-15T10:20:39.750Z,1.20
2019-05-15T10:23:43.571Z,1.30
2019-05-15T10:26:49.080Z,1.20
2019-05-15T10:29:52.722Z,1.00
2019-05-15T10:32:56.434Z,1.30
2019-05-15T10:36:00.111Z,1.50
2019-05-15T10:39:08.207Z,1.40
2019-05-15T10:42:11.424Z,1.30
2019-05-15T10:45:15.643Z,1.07
2019-05-15T10:48:19.437Z,1.00
2019-05-15T10:51:23.458Z,1.17
2019-05-15T10:54:28.939Z,0.90
2019-05-15T10:57:32.588Z,0.90
2019-05-15T11:00:36.266Z,1.22
2019-05-15T11:03:40.220Z,1.05
2019-05-15T11:06:43.916Z,1.20
2019-05-15T11:09:48.898Z,1.00
2019-05-15T11:12:52.908Z,0.80
2019-05-15T11:15:56.596Z,0.90
2019-05-15T11:19:00.384Z,0.90
2019-05-15T11:22:04.439Z,0.90
2019-05-15T11:25:10.099Z,0.90
2019-05-15T11:28:14.425Z,0.90
2019-05-15T11:31:18.133Z,0.90
2019-05-15T11:34:21.826Z,1.00
2019-05-15T11:37:28.127Z,0.90
2019-05-15T11:40:31.279Z,0.90
2019-05-15T11:43:38.255Z,1.07
2019-05-15T11:46:40.954Z,0.80
2019-05-15T11:49:44.722Z,0.87
2019-05-15T11:52:48.551Z,0.80
2019-05-15T11:55:52.264Z,0.85
2019-05-15T11:58:56.260Z,0.90
2019-05-15T12:02:00.218Z,0.83
2019-05-15T12:05:04.025Z,1.00
2019-05-15T12:08:09.008Z,0.90
2019-05-15T12:11:28.677Z,0.90
2019-05-15T12:14:19.375Z,1.07
2019-05-15T12:17:23.397Z,1.10
2019-05-15T12:20:28.587Z,0.90
2019-05-15T12:23:32.483Z,1.00
2019-05-15T12:26:39.282Z,1.00
2019-05-15T12:29:41.913Z,1.00
2019-05-15T12:32:49.024Z,0.87
2019-05-15T12:35:51.243Z,0.87
2019-05-15T12:38:55.211Z,1.10
2019-05-15T13:00:32.349Z,0.87
2019-05-15T13:03:38.183Z,0.70
2019-05-15T13:06:51.262Z,0.80
2019-05-15T13:09:48.679Z,1.00
2019-05-15T13:13:00.990Z,1.00
2019-05-15T13:15:58.897Z,1.00
2019-05-15T13:19:02.888Z,0.80
2019-05-15T13:22:17.346Z,0.60
2019-05-15T13:25:12.638Z,0.80
2019-05-15T13:28:18.446Z,0.90
2019-05-15T13:31:21.922Z,0.77
2019-05-15T13:34:25.611Z,0.80
2019-05-15T13:37:30.947Z,1.00
2019-05-15T13:40:38.221Z,0.80
2019-05-15T13:43:40.491Z,0.80
2019-05-15T13:46:44.193Z,0.77
2019-05-15T13:49:48.154Z,0.90
2019-05-15T13:52:51.862Z,0.70
2019-05-15T13:55:55.599Z,0.83
2019-05-15T13:58:59.310Z,0.70
2019-05-15T14:02:03.258Z,0.83
2019-05-15T14:05:09.548Z,0.73
2019-05-15T14:08:13.539Z,0.80
2019-05-15T14:11:21.158Z,1.00
2019-05-15T14:14:22.696Z,1.10
2019-05-15T14:17:28.265Z,0.90
2019-05-15T14:20:32.250Z,1.07
2019-05-15T14:23:38.295Z,1.17
2019-05-15T14:26:41.359Z,1.03
2019-05-15T14:29:45.073Z,1.20
2019-05-15T14:32:49.074Z,1.10
2019-05-15T14:35:52.758Z,1.00
2019-05-15T14:38:58.653Z,1.20
2019-05-15T14:42:04.630Z,1.10
2019-05-15T14:45:08.705Z,1.50
2019-05-15T14:48:12.687Z,1.40
2019-05-15T14:51:19.041Z,1.30
2019-05-15T14:54:22.266Z,1.10
2019-05-15T14:57:25.966Z,1.60
2019-05-15T15:00:34.502Z,1.10
2019-05-15T15:03:35.153Z,1.10
2019-05-15T15:06:39.625Z,1.00
2019-05-15T15:09:43.330Z,1.00
2019-05-15T15:12:49.709Z,1.00
2019-05-15T15:15:52.469Z,0.80
2019-05-15T15:18:58.453Z,0.90
2019-05-15T15:22:02.383Z,0.80
2019-05-15T15:25:09.379Z,0.80
2019-05-15T15:28:12.510Z,0.90
2019-05-15T15:31:18.943Z,0.83
2019-05-15T15:34:22.379Z,0.87
2019-05-15T15:37:28.537Z,0.90
2019-05-15T15:40:31.486Z,0.70
2019-05-15T15:43:35.195Z,1.00
2019-05-15T15:46:39.499Z,0.90
2019-05-15T15:49:43.537Z,0.60
2019-05-15T15:52:48.840Z,0.70
2019-05-15T15:55:53.149Z,0.73
2019-05-15T15:58:59.311Z,0.87
2019-05-15T16:02:02.326Z,0.70
2019-05-15T16:05:08.130Z,0.90
2019-05-15T16:08:11.811Z,0.80
2019-05-15T16:11:15.509Z,0.80
2019-05-15T16:14:19.221Z,0.70
2019-05-15T16:17:23.198Z,0.90
2019-05-15T16:20:28.638Z,1.00
2019-05-15T16:23:32.319Z,0.87
2019-05-15T16:26:38.164Z,0.70
2019-05-15T16:29:41.444Z,0.80
2019-05-15T16:32:45.218Z,0.70
2019-05-15T16:35:48.935Z,0.83
2019-05-15T16:39:04.010Z,0.90
2019-05-15T16:41:59.401Z,0.70
2019-05-15T16:45:03.562Z,0.70
2019-05-15T16:48:09.429Z,0.87
2019-05-15T16:51:12.983Z,0.67
2019-05-15T16:54:18.227Z,0.73
2019-05-15T16:57:22.054Z,0.63
2019-05-15T17:00:25.805Z,0.63
2019-05-15T17:03:29.494Z,0.67
2019-05-15T17:06:33.199Z,0.60
2019-05-15T17:09:38.724Z,0.77
2019-05-15T17:12:42.557Z,0.80
2019-05-15T17:15:47.811Z,1.10
2019-05-15T17:18:51.640Z,0.97
2019-05-15T17:21:55.703Z,0.77
2019-05-15T17:24:59.384Z,0.70
2019-05-15T17:28:03.094Z,0.80
2019-05-15T17:31:09.206Z,0.80
2019-05-15T17:34:12.534Z,0.80
2019-05-15T17:37:18.224Z,0.70
2019-05-15T17:40:21.992Z,0.80
2019-05-15T17:43:25.700Z,1.30
2019-05-15T17:46:29.897Z,1.10
2019-05-15T17:49:34.159Z,0.70
2019-05-15T17:52:38.651Z,0.60
2019-05-15T17:55:42.741Z,0.70
2019-05-15T17:58:48.742Z,0.67
2019-05-15T18:01:52.712Z,0.60
2019-05-15T18:04:58.676Z,0.70
2019-05-15T18:08:01.858Z,0.70
2019-05-15T18:11:07.947Z,0.80
2019-05-15T18:14:10.956Z,0.53
2019-05-15T18:17:15.217Z,0.70
2019-05-15T18:20:24.491Z,0.87
2019-05-15T18:23:28.186Z,0.70
2019-05-15T18:26:32.178Z,0.60
2019-05-15T18:29:38.462Z,0.57
2019-05-15T18:32:42.018Z,0.57
2019-05-15T18:35:45.991Z,0.60
2019-05-15T18:38:50.374Z,0.80
2019-05-15T18:41:54.071Z,0.67
2019-05-15T18:44:58.384Z,0.60
2019-05-15T18:48:02.327Z,0.60
2019-05-15T18:51:08.082Z,0.60
2019-05-15T18:54:11.929Z,0.63
2019-05-15T18:57:15.644Z,0.70
2019-05-15T19:00:19.693Z,0.83
2019-05-15T19:03:23.416Z,0.60
2019-05-15T19:06:29.177Z,0.73
2019-05-15T19:09:32.562Z,0.63
2019-05-15T19:12:37.867Z,0.60
2019-05-15T19:15:41.778Z,0.70
2019-05-15T19:18:47.769Z,0.80
2019-05-15T19:21:50.929Z,0.90
2019-05-15T19:24:54.685Z,0.77
2019-05-15T19:27:58.702Z,0.70
2019-05-15T19:31:02.678Z,0.77
2019-05-15T19:34:08.554Z,0.63
2019-05-15T19:37:11.869Z,0.60
2019-05-15T19:40:15.836Z,0.80
2019-05-15T19:43:19.525Z,0.70
2019-05-15T19:46:23.223Z,0.63
2019-05-15T19:49:27.515Z,0.73
2019-05-15T19:52:31.222Z,0.80
2019-05-15T19:55:35.194Z,0.80
2019-05-15T19:58:38.884Z,0.70
2019-05-15T20:01:42.847Z,1.00
2019-05-15T20:04:46.548Z,0.90
2019-05-15T20:07:50.275Z,0.80
2019-05-15T20:10:54.053Z,0.57
2019-05-15T20:13:58.410Z,0.80
2019-05-15T20:17:02.256Z,0.63
2019-05-15T20:20:08.734Z,0.80
2019-05-15T20:23:12.159Z,0.80
2019-05-15T20:26:17.954Z,0.90
2019-05-15T20:29:21.350Z,0.80
2019-05-15T20:32:25.162Z,0.87
2019-05-15T20:35:28.873Z,0.90
2019-05-15T20:38:32.577Z,0.70
2019-05-15T20:41:38.313Z,0.90
2019-05-15T20:44:41.690Z,0.60
2019-05-15T20:47:45.649Z,0.70
2019-05-15T20:50:49.344Z,0.67
2019-05-15T20:53:53.055Z,0.60
2019-05-15T20:56:58.356Z,0.60
2019-05-15T21:00:02.297Z,0.80
2019-05-15T21:03:08.427Z,0.70
2019-05-15T21:06:12.608Z,0.90
2019-05-15T21:09:16.332Z,0.70
2019-05-15T21:12:20.054Z,0.87
2019-05-15T21:15:23.801Z,0.70
2019-05-15T21:18:28.943Z,0.80
2019-05-15T21:21:32.957Z,1.00
2019-05-15T21:24:37.814Z,0.70
2019-05-15T21:27:43.301Z,0.90
2019-05-15T21:30:49.499Z,0.70
2019-05-15T21:33:52.453Z,0.80
2019-05-15T21:36:56.148Z,0.80
2019-05-15T21:39:59.841Z,0.77
2019-05-15T21:43:03.538Z,0.80
2019-05-15T21:46:08.526Z,0.77
2019-05-15T21:49:12.739Z,1.10
2019-05-15T21:52:18.567Z,0.93
2019-05-15T21:55:21.848Z,0.80
2019-05-15T21:58:25.638Z,1.13
2019-05-15T22:01:29.495Z,0.90
2019-05-15T22:04:33.559Z,0.97
2019-05-15T22:07:38.856Z,1.00
2019-05-15T22:10:42.702Z,0.97
2019-05-15T22:13:48.476Z,1.03
2019-05-15T22:16:51.901Z,0.93
2019-05-15T22:19:57.774Z,1.00
2019-05-15T22:23:01.296Z,1.00
2019-05-15T22:26:05.055Z,1.17
2019-05-15T22:29:08.946Z,1.00
2019-05-15T22:32:12.915Z,1.27
2019-05-15T22:35:18.766Z,0.93
2019-05-15T22:38:22.200Z,0.87
2019-05-15T22:41:27.943Z,1.00
2019-05-15T22:44:31.343Z,1.20
2019-05-15T22:47:35.033Z,1.00
2019-05-15T22:50:38.806Z,1.10
2019-05-15T22:53:42.507Z,0.90
2019-05-15T22:56:48.258Z,1.40
2019-05-15T22:59:51.857Z,1.23
2019-05-15T23:02:57.859Z,1.07
2019-05-15T23:06:00.981Z,1.17
2019-05-15T23:09:06.666Z,1.10
2019-05-15T23:12:11.892Z,0.80
2019-05-15T23:15:15.988Z,1.10
2019-05-15T23:18:19.685Z,0.90
2019-05-15T23:21:23.383Z,1.07
2019-05-15T23:24:28.208Z,0.90
2019-05-15T23:27:31.960Z,1.20
2019-05-15T23:30:35.670Z,1.07
2019-05-15T23:33:39.353Z,1.10
2019-05-15T23:36:43.041Z,1.30
2019-05-15T23:39:48.652Z,1.30
2019-05-15T23:42:52.145Z,1.40
2019-05-15T23:45:55.837Z,1.30
2019-05-15T23:48:59.597Z,1.20
2019-05-15T23:52:03.354Z,1.30
2019-05-15T23:55:08.524Z,1.17
2019-05-15T23:58:12.496Z,1.20
